createdAt,value
2018-09-16T00:01:39.533Z,90.75
2018-09-16T00:04:08.807Z,91.12
2018-09-16T00:06:38.088Z,91.39
2018-09-16T00:09:09.745Z,91.91
2018-09-16T00:11:39.103Z,91.92
2018-09-16T00:14:08.350Z,91.57
2018-09-16T00:16:37.631Z,92.11
2018-09-16T00:19:06.970Z,92.46
2018-09-16T00:21:36.278Z,92.21
2018-09-16T00:24:05.549Z,91.96
2018-09-16T00:26:34.830Z,92.13
2018-09-16T00:29:04.074Z,91.62
2018-09-16T00:31:33.344Z,91.87
2018-09-16T00:34:02.690Z,92.87
2018-09-16T00:36:31.970Z,93.06
2018-09-16T00:39:01.336Z,93.25
2018-09-16T00:41:30.562Z,94.04
2018-09-16T00:43:59.824Z,94.10
2018-09-16T00:46:29.070Z,93.87
2018-09-16T00:48:58.334Z,93.74
2018-09-16T00:51:27.651Z,93.97
2018-09-16T00:53:56.913Z,94.04
2018-09-16T00:56:26.201Z,93.84
2018-09-16T00:58:55.463Z,93.96
2018-09-16T01:01:24.777Z,94.04
2018-09-16T01:03:54.094Z,94.03
2018-09-16T01:06:28.498Z,94.94
2018-09-16T01:08:57.795Z,95.41
2018-09-16T01:11:27.081Z,95.71
2018-09-16T01:13:56.342Z,96.06
2018-09-16T01:16:25.782Z,97.07
2018-09-16T01:18:55.750Z,97.71
2018-09-16T01:21:25.042Z,97.73
2018-09-16T01:23:54.342Z,97.83
2018-09-16T01:26:23.601Z,97.08
2018-09-16T01:28:52.843Z,96.55
2018-09-16T01:31:22.069Z,97.94
2018-09-16T01:33:51.317Z,97.79
2018-09-16T01:36:20.521Z,98.34
2018-09-16T01:38:52.745Z,97.74
2018-09-16T01:41:22.392Z,97.65
2018-09-16T01:43:51.838Z,98.03
2018-09-16T01:46:21.149Z,98.21
2018-09-16T01:48:50.422Z,98.56
2018-09-16T01:51:19.695Z,98.58
2018-09-16T01:53:48.957Z,98.32
2018-09-16T01:56:18.181Z,98.92
2018-09-16T01:58:47.476Z,99.73
2018-09-16T02:01:16.769Z,100.00
2018-09-16T02:03:46.454Z,100.00
2018-09-16T02:06:15.728Z,100.00
2018-09-16T02:08:45.005Z,100.00
2018-09-16T02:11:14.309Z,100.00
2018-09-16T02:13:43.583Z,100.00
2018-09-16T02:16:12.854Z,100.00
2018-09-16T02:18:42.130Z,100.00
2018-09-16T02:21:11.443Z,100.00
2018-09-16T02:23:40.735Z,100.00
2018-09-16T02:26:10.093Z,100.00
2018-09-16T02:28:39.378Z,100.00
2018-09-16T02:31:08.646Z,100.00
2018-09-16T02:33:37.904Z,100.00
2018-09-16T02:36:07.549Z,100.00
2018-09-16T02:38:36.810Z,100.00
2018-09-16T02:41:06.032Z,100.00
2018-09-16T02:43:35.451Z,100.00
2018-09-16T02:46:04.534Z,100.00
2018-09-16T02:48:40.137Z,100.00
2018-09-16T02:51:09.356Z,100.00
2018-09-16T02:53:38.586Z,100.00
2018-09-16T02:56:07.816Z,100.00
2018-09-16T02:58:37.046Z,99.74
2018-09-16T03:01:06.273Z,99.80
2018-09-16T03:03:35.498Z,99.72
2018-09-16T03:06:04.750Z,100.00
2018-09-16T03:08:33.975Z,99.90
2018-09-16T03:11:03.194Z,100.00
2018-09-16T03:13:32.443Z,100.00
2018-09-16T03:16:01.665Z,100.00
2018-09-16T03:18:30.914Z,100.00
2018-09-16T03:21:00.134Z,100.00
2018-09-16T03:23:29.383Z,100.00
2018-09-16T03:25:58.606Z,100.00
2018-09-16T03:28:27.883Z,100.00
2018-09-16T03:30:57.134Z,100.00
2018-09-16T03:33:26.415Z,100.00
2018-09-16T03:35:55.661Z,100.00
2018-09-16T03:38:24.922Z,100.00
2018-09-16T03:40:54.187Z,100.00
2018-09-16T03:43:23.722Z,100.00
2018-09-16T03:45:52.977Z,100.00
2018-09-16T03:48:22.233Z,100.00
2018-09-16T03:50:51.508Z,100.00
2018-09-16T03:53:20.712Z,100.00
2018-09-16T03:55:49.982Z,100.00
2018-09-16T03:58:19.282Z,100.00
2018-09-16T04:00:48.506Z,100.00
2018-09-16T04:03:17.746Z,100.00
2018-09-16T04:05:46.963Z,100.00
2018-09-16T04:08:16.206Z,100.00
2018-09-16T04:10:52.387Z,100.00
2018-09-16T04:13:21.392Z,100.00
2018-09-16T04:15:50.634Z,100.00
2018-09-16T04:18:19.894Z,100.00
2018-09-16T04:20:49.126Z,100.00
2018-09-16T04:23:18.383Z,100.00
2018-09-16T04:25:47.613Z,100.00
2018-09-16T04:28:16.844Z,100.00
2018-09-16T04:30:46.099Z,100.00
2018-09-16T04:33:15.336Z,100.00
2018-09-16T04:35:44.589Z,100.00
2018-09-16T04:38:13.819Z,100.00
2018-09-16T04:40:43.061Z,100.00
2018-09-16T04:43:12.280Z,100.00
2018-09-16T04:45:41.463Z,100.00
2018-09-16T04:48:10.681Z,100.00
2018-09-16T04:50:39.906Z,100.00
2018-09-16T04:53:09.115Z,100.00
2018-09-16T04:55:38.398Z,100.00
2018-09-16T04:58:07.658Z,100.00
2018-09-16T05:00:36.897Z,100.00
2018-09-16T05:03:06.392Z,100.00
2018-09-16T05:05:35.590Z,100.00
2018-09-16T05:08:05.701Z,100.00
2018-09-16T05:10:36.056Z,100.00
2018-09-16T05:13:05.940Z,100.00
2018-09-16T05:15:35.199Z,100.00
2018-09-16T05:18:04.426Z,100.00
2018-09-16T05:20:33.616Z,100.00
2018-09-16T05:23:03.482Z,100.00
2018-09-16T05:25:32.700Z,100.00
2018-09-16T05:28:01.929Z,100.00
2018-09-16T05:30:31.162Z,100.00
2018-09-16T05:33:00.388Z,100.00
2018-09-16T05:35:29.659Z,100.00
2018-09-16T05:37:58.919Z,100.00
2018-09-16T05:40:28.270Z,100.00
2018-09-16T05:42:57.793Z,100.00
2018-09-16T05:45:27.189Z,100.00
2018-09-16T05:47:56.437Z,100.00
2018-09-16T05:50:25.712Z,100.00
2018-09-16T05:52:55.647Z,100.00
2018-09-16T05:55:24.853Z,100.00
2018-09-16T05:57:54.611Z,100.00
2018-09-16T06:00:28.547Z,100.00
2018-09-16T06:02:58.370Z,99.83
2018-09-16T06:05:27.621Z,99.25
2018-09-16T06:07:56.873Z,98.77
2018-09-16T06:10:26.085Z,97.50
2018-09-16T06:12:55.384Z,97.99
2018-09-16T06:15:24.654Z,97.52
2018-09-16T06:17:53.912Z,96.28
2018-09-16T06:20:23.231Z,95.32
2018-09-16T06:22:52.496Z,95.05
2018-09-16T06:25:21.713Z,95.24
2018-09-16T06:27:50.998Z,94.75
2018-09-16T06:30:20.226Z,93.37
2018-09-16T06:32:49.494Z,92.10
2018-09-16T06:35:18.719Z,91.47
2018-09-16T06:37:47.989Z,90.41
2018-09-16T06:40:17.306Z,89.33
2018-09-16T06:42:46.598Z,87.93
2018-09-16T06:45:15.901Z,87.21
2018-09-16T06:47:45.166Z,86.08
2018-09-16T06:50:14.454Z,84.83
2018-09-16T06:52:43.742Z,83.85
2018-09-16T06:55:13.023Z,83.59
2018-09-16T06:57:42.311Z,81.17
2018-09-16T07:00:12.188Z,81.30
2018-09-16T07:02:41.453Z,79.30
2018-09-16T07:05:10.720Z,77.57
2018-09-16T07:07:40.039Z,77.01
2018-09-16T07:10:10.424Z,77.11
2018-09-16T07:12:39.783Z,74.35
2018-09-16T07:15:09.386Z,72.38
2018-09-16T07:17:38.694Z,72.01
2018-09-16T07:20:07.987Z,71.82
2018-09-16T07:22:38.014Z,71.45
2018-09-16T07:25:09.298Z,69.79
2018-09-16T07:27:38.675Z,69.43
2018-09-16T07:30:08.091Z,69.30
2018-09-16T07:32:37.471Z,68.43
2018-09-16T07:35:06.974Z,68.58
2018-09-16T07:37:36.345Z,67.71
2018-09-16T07:40:05.792Z,65.93
2018-09-16T07:42:35.038Z,66.03
2018-09-16T07:45:04.296Z,65.29
2018-09-16T07:47:33.531Z,63.79
2018-09-16T07:50:02.851Z,63.94
2018-09-16T07:52:34.888Z,63.37
2018-09-16T07:55:04.259Z,63.77
2018-09-16T07:57:33.461Z,62.50
2018-09-16T08:00:02.729Z,61.80
2018-09-16T08:02:32.103Z,62.04
2018-09-16T08:05:01.399Z,60.18
2018-09-16T08:07:30.651Z,60.70
2018-09-16T08:09:59.938Z,60.79
2018-09-16T08:12:29.163Z,60.60
2018-09-16T08:14:58.450Z,59.97
2018-09-16T08:17:27.706Z,57.86
2018-09-16T08:19:56.950Z,58.07
2018-09-16T08:22:26.507Z,58.07
2018-09-16T08:24:55.779Z,57.68
2018-09-16T08:27:25.049Z,57.82
2018-09-16T08:29:54.739Z,57.32
2018-09-16T08:32:24.323Z,56.80
2018-09-16T08:34:53.682Z,56.57
2018-09-16T08:37:22.972Z,56.38
2018-09-16T08:39:52.326Z,55.32
2018-09-16T08:42:21.886Z,55.50
2018-09-16T08:44:51.194Z,54.92
2018-09-16T08:47:20.693Z,55.91
2018-09-16T08:49:50.724Z,54.76
2018-09-16T08:52:20.068Z,53.90
2018-09-16T08:54:49.304Z,52.98
2018-09-16T08:57:18.679Z,53.51
2018-09-16T08:59:47.991Z,53.70
2018-09-16T09:02:17.307Z,52.94
2018-09-16T09:04:46.607Z,52.42
2018-09-16T09:07:15.908Z,52.81
2018-09-16T09:09:46.213Z,53.20
2018-09-16T09:12:15.520Z,52.68
2018-09-16T09:14:44.841Z,52.25
2018-09-16T09:17:14.149Z,51.72
2018-09-16T09:19:43.459Z,51.31
2018-09-16T09:22:12.754Z,51.96
2018-09-16T09:24:42.058Z,52.55
2018-09-16T09:27:11.601Z,52.12
2018-09-16T09:29:40.936Z,52.10
2018-09-16T09:32:10.304Z,50.32
2018-09-16T09:34:39.599Z,51.91
2018-09-16T09:37:08.964Z,52.14
2018-09-16T09:39:38.293Z,51.51
2018-09-16T09:42:07.609Z,50.71
2018-09-16T09:44:36.858Z,49.61
2018-09-16T09:47:06.236Z,50.11
2018-09-16T09:49:35.619Z,50.41
2018-09-16T09:52:04.918Z,50.20
2018-09-16T09:54:34.181Z,50.34
2018-09-16T09:57:03.460Z,49.80
2018-09-16T09:59:32.752Z,49.35
2018-09-16T10:02:02.046Z,49.64
2018-09-16T10:04:31.396Z,49.41
2018-09-16T10:07:02.171Z,48.99
2018-09-16T10:09:31.638Z,48.86
2018-09-16T10:12:00.910Z,49.57
2018-09-16T10:14:30.212Z,48.14
2018-09-16T10:16:59.508Z,48.65
2018-09-16T10:19:28.890Z,47.43
2018-09-16T10:21:58.310Z,48.14
2018-09-16T10:24:27.742Z,48.25
2018-09-16T10:26:57.093Z,47.66
2018-09-16T10:29:26.629Z,47.90
2018-09-16T10:31:55.941Z,47.64
2018-09-16T10:34:25.467Z,47.51
2018-09-16T10:36:54.793Z,47.41
2018-09-16T10:39:24.216Z,47.03
2018-09-16T10:41:53.562Z,47.01
2018-09-16T10:44:22.790Z,46.60
2018-09-16T10:46:52.122Z,47.85
2018-09-16T10:49:21.380Z,47.20
2018-09-16T10:51:50.721Z,46.44
2018-09-16T10:54:20.037Z,46.80
2018-09-16T10:56:49.317Z,46.69
2018-09-16T10:59:18.631Z,47.39
2018-09-16T11:01:47.951Z,46.91
2018-09-16T11:04:17.246Z,46.12
2018-09-16T11:06:46.550Z,47.19
2018-09-16T11:09:15.961Z,46.99
2018-09-16T11:11:45.246Z,47.13
2018-09-16T11:14:14.544Z,46.73
2018-09-16T11:16:43.829Z,46.00
2018-09-16T11:19:13.153Z,45.52
2018-09-16T11:21:42.525Z,45.09
2018-09-16T11:24:11.843Z,44.45
2018-09-16T11:26:40.877Z,44.31
2018-09-16T11:29:10.696Z,45.46
2018-09-16T11:31:46.702Z,45.96
2018-09-16T11:34:16.049Z,45.76
2018-09-16T11:36:45.387Z,44.72
2018-09-16T11:39:14.747Z,45.26
2018-09-16T11:41:44.016Z,44.78
2018-09-16T11:44:13.312Z,44.87
2018-09-16T11:46:42.609Z,45.12
2018-09-16T11:49:11.910Z,44.34
2018-09-16T11:51:41.234Z,44.68
2018-09-16T11:54:10.357Z,44.57
2018-09-16T11:56:39.643Z,43.65
2018-09-16T11:59:09.011Z,43.51
2018-09-16T12:01:38.304Z,43.51
2018-09-16T12:04:07.597Z,43.78
2018-09-16T12:06:36.905Z,42.47
2018-09-16T12:09:08.909Z,43.00
2018-09-16T12:11:38.288Z,42.84
2018-09-16T12:14:07.574Z,42.59
2018-09-16T12:16:36.811Z,42.73
2018-09-16T12:19:06.112Z,41.67
2018-09-16T12:21:35.321Z,41.89
2018-09-16T12:24:04.655Z,41.91
2018-09-16T12:26:33.918Z,43.19
2018-09-16T12:29:03.182Z,42.85
2018-09-16T12:31:32.459Z,42.55
2018-09-16T12:34:01.723Z,42.37
2018-09-16T12:36:31.013Z,41.80
2018-09-16T12:39:00.326Z,40.83
2018-09-16T12:41:29.669Z,42.70
2018-09-16T12:43:58.985Z,43.01
2018-09-16T12:46:28.292Z,42.19
2018-09-16T12:48:57.607Z,42.41
2018-09-16T12:51:26.910Z,41.88
2018-09-16T12:53:56.227Z,42.49
2018-09-16T12:56:25.574Z,42.42
2018-09-16T12:58:54.851Z,42.54
2018-09-16T13:01:24.151Z,42.83
2018-09-16T13:03:53.434Z,43.05
2018-09-16T13:06:22.774Z,42.03
2018-09-16T13:08:52.282Z,42.32
2018-09-16T13:11:21.587Z,42.19
2018-09-16T13:13:50.841Z,43.00
2018-09-16T13:16:20.219Z,41.99
2018-09-16T13:18:49.507Z,42.04
2018-09-16T13:21:18.787Z,41.36
2018-09-16T13:23:48.029Z,40.54
2018-09-16T13:26:17.304Z,40.55
2018-09-16T13:28:46.606Z,40.68
2018-09-16T13:31:15.885Z,40.90
2018-09-16T13:33:45.160Z,41.34
2018-09-16T13:36:14.467Z,40.70
2018-09-16T13:38:43.725Z,42.02
2018-09-16T13:41:13.006Z,42.09
2018-09-16T13:43:42.270Z,41.94
2018-09-16T13:46:11.691Z,42.01
2018-09-16T13:48:40.986Z,41.73
2018-09-16T13:51:10.361Z,41.86
2018-09-16T13:53:39.625Z,42.26
2018-09-16T13:56:08.889Z,42.90
2018-09-16T13:58:38.135Z,41.98
2018-09-16T14:01:07.477Z,41.69
2018-09-16T14:03:36.706Z,42.00
2018-09-16T14:06:05.950Z,41.64
2018-09-16T14:08:35.190Z,40.90
2018-09-16T14:11:04.437Z,42.14
2018-09-16T14:13:33.757Z,41.10
2018-09-16T14:16:03.038Z,41.58
2018-09-16T14:18:32.269Z,41.43
2018-09-16T14:21:01.561Z,41.69
2018-09-16T14:23:30.869Z,40.92
2018-09-16T14:26:00.095Z,41.69
2018-09-16T14:28:29.308Z,42.06
2018-09-16T14:30:58.534Z,41.99
2018-09-16T14:33:27.889Z,42.41
2018-09-16T14:35:57.466Z,42.03
2018-09-16T14:38:26.779Z,42.07
2018-09-16T14:40:56.033Z,41.18
2018-09-16T14:43:25.379Z,41.62
2018-09-16T14:45:54.675Z,41.17
2018-09-16T14:48:23.997Z,41.47
2018-09-16T14:50:53.265Z,41.44
2018-09-16T14:53:22.565Z,42.10
2018-09-16T14:55:51.812Z,41.86
2018-09-16T14:58:21.063Z,42.23
2018-09-16T15:00:50.323Z,41.91
2018-09-16T15:03:19.562Z,41.68
2018-09-16T15:05:48.969Z,41.70
2018-09-16T15:08:18.817Z,41.57
2018-09-16T15:10:48.858Z,42.03
2018-09-16T15:13:18.594Z,41.60
2018-09-16T15:15:47.950Z,41.86
2018-09-16T15:18:17.224Z,42.19
2018-09-16T15:20:46.462Z,42.79
2018-09-16T15:23:15.715Z,43.04
2018-09-16T15:25:44.966Z,42.81
2018-09-16T15:28:14.265Z,42.08
2018-09-16T15:30:43.456Z,42.63
2018-09-16T15:33:12.703Z,42.50
2018-09-16T15:35:41.994Z,42.77
2018-09-16T15:38:11.265Z,42.96
2018-09-16T15:40:40.507Z,43.01
2018-09-16T15:43:09.827Z,44.17
2018-09-16T15:45:39.078Z,43.38
2018-09-16T15:48:08.335Z,41.97
2018-09-16T15:50:37.574Z,42.30
2018-09-16T15:53:06.988Z,42.12
2018-09-16T15:55:36.289Z,42.22
2018-09-16T15:58:05.564Z,42.55
2018-09-16T16:00:34.807Z,42.46
2018-09-16T16:03:04.159Z,42.71
2018-09-16T16:05:33.405Z,42.97
2018-09-16T16:08:02.663Z,43.73
2018-09-16T16:10:31.933Z,43.21
2018-09-16T16:13:01.197Z,43.72
2018-09-16T16:15:30.458Z,43.47
2018-09-16T16:17:59.700Z,44.22
2018-09-16T16:20:28.962Z,44.71
2018-09-16T16:22:58.315Z,45.10
2018-09-16T16:25:27.628Z,45.59
2018-09-16T16:27:56.922Z,45.99
2018-09-16T16:30:26.223Z,46.02
2018-09-16T16:32:55.500Z,46.47
2018-09-16T16:35:24.842Z,47.02
2018-09-16T16:37:54.110Z,46.41
2018-09-16T16:40:23.496Z,46.07
2018-09-16T16:42:52.828Z,46.27
2018-09-16T16:45:22.157Z,46.78
2018-09-16T16:47:51.632Z,46.97
2018-09-16T16:50:21.010Z,47.50
2018-09-16T16:52:50.400Z,47.64
2018-09-16T16:55:19.938Z,48.56
2018-09-16T16:57:49.338Z,49.39
2018-09-16T17:00:20.031Z,49.85
2018-09-16T17:02:49.459Z,50.92
2018-09-16T17:05:19.221Z,52.40
2018-09-16T17:07:48.497Z,53.03
2018-09-16T17:10:17.904Z,54.56
2018-09-16T17:12:47.279Z,55.61
2018-09-16T17:15:16.697Z,57.11
2018-09-16T17:17:46.015Z,58.37
2018-09-16T17:20:15.414Z,58.42
2018-09-16T17:22:44.749Z,60.11
2018-09-16T17:25:14.125Z,59.87
2018-09-16T17:27:43.626Z,58.57
2018-09-16T17:30:13.005Z,60.41
2018-09-16T17:32:42.337Z,62.16
2018-09-16T17:35:11.807Z,63.59
2018-09-16T17:37:41.282Z,63.10
2018-09-16T17:40:10.859Z,63.29
2018-09-16T17:42:40.549Z,63.74
2018-09-16T17:45:09.843Z,63.53
2018-09-16T17:47:39.094Z,64.00
2018-09-16T17:50:08.679Z,65.16
2018-09-16T17:52:37.971Z,65.28
2018-09-16T17:55:07.338Z,65.56
2018-09-16T17:57:36.742Z,66.03
2018-09-16T18:00:06.029Z,66.19
2018-09-16T18:02:35.390Z,65.57
2018-09-16T18:05:04.744Z,65.95
2018-09-16T18:07:34.059Z,66.09
2018-09-16T18:10:03.329Z,66.07
2018-09-16T18:12:32.653Z,66.72
2018-09-16T18:15:02.942Z,67.17
2018-09-16T18:17:32.363Z,67.07
2018-09-16T18:20:01.701Z,67.23
2018-09-16T18:22:30.923Z,66.83
2018-09-16T18:25:00.341Z,67.11
2018-09-16T18:27:29.641Z,67.50
2018-09-16T18:29:59.095Z,68.74
2018-09-16T18:32:28.331Z,69.30
2018-09-16T18:34:57.647Z,71.67
2018-09-16T18:37:26.918Z,72.70
2018-09-16T18:39:56.534Z,73.71
2018-09-16T18:42:25.848Z,73.70
2018-09-16T18:44:55.323Z,74.31
2018-09-16T18:47:24.771Z,73.71
2018-09-16T18:49:56.278Z,71.62
2018-09-16T18:52:25.768Z,71.09
2018-09-16T18:54:56.050Z,70.91
2018-09-16T18:57:26.946Z,71.16
2018-09-16T18:59:56.371Z,71.30
2018-09-16T19:02:25.778Z,72.38
2018-09-16T19:04:55.184Z,71.85
2018-09-16T19:07:24.567Z,72.62
2018-09-16T19:09:54.467Z,72.38
2018-09-16T19:12:24.276Z,71.54
2018-09-16T19:14:53.594Z,71.33
2018-09-16T19:17:22.979Z,72.09
2018-09-16T19:19:52.464Z,73.39
2018-09-16T19:22:22.103Z,75.20
2018-09-16T19:24:51.507Z,75.44
2018-09-16T19:27:20.854Z,75.02
2018-09-16T19:29:50.130Z,75.05
2018-09-16T19:32:19.634Z,72.59
2018-09-16T19:34:48.824Z,74.00
2018-09-16T19:37:18.077Z,73.13
2018-09-16T19:39:47.398Z,74.53
2018-09-16T19:42:16.807Z,74.39
2018-09-16T19:44:46.029Z,73.32
2018-09-16T19:47:15.474Z,73.69
2018-09-16T19:49:44.776Z,73.58
2018-09-16T19:52:14.159Z,74.03
2018-09-16T19:54:43.549Z,74.31
2018-09-16T19:57:12.910Z,75.06
2018-09-16T19:59:42.769Z,75.20
2018-09-16T20:02:12.090Z,74.88
2018-09-16T20:04:43.208Z,75.62
2018-09-16T20:07:13.669Z,75.85
2018-09-16T20:09:43.294Z,76.15
2018-09-16T20:12:12.664Z,76.13
2018-09-16T20:14:42.018Z,76.17
2018-09-16T20:17:11.486Z,77.09
2018-09-16T20:19:40.793Z,77.40
2018-09-16T20:22:10.239Z,76.71
2018-09-16T20:24:39.620Z,76.84
2018-09-16T20:27:09.123Z,77.57
2018-09-16T20:29:38.390Z,77.57
2018-09-16T20:32:07.645Z,77.98
2018-09-16T20:34:36.913Z,77.40
2018-09-16T20:37:06.294Z,77.91
2018-09-16T20:39:35.593Z,78.37
2018-09-16T20:42:04.915Z,78.46
2018-09-16T20:44:34.199Z,77.99
2018-09-16T20:47:03.426Z,77.74
2018-09-16T20:49:32.695Z,78.54
2018-09-16T20:52:01.934Z,78.79
2018-09-16T20:54:31.398Z,78.75
2018-09-16T20:57:00.629Z,79.37
2018-09-16T20:59:29.861Z,78.78
2018-09-16T21:01:59.217Z,78.29
2018-09-16T21:04:28.608Z,79.04
2018-09-16T21:06:57.907Z,79.55
2018-09-16T21:09:27.182Z,79.44
2018-09-16T21:11:56.457Z,78.81
2018-09-16T21:14:25.805Z,79.60
2018-09-16T21:16:55.104Z,79.49
2018-09-16T21:19:24.379Z,80.14
2018-09-16T21:21:53.661Z,80.07
2018-09-16T21:24:22.971Z,80.01
2018-09-16T21:26:52.334Z,79.84
2018-09-16T21:29:21.571Z,79.95
2018-09-16T21:31:50.878Z,80.41
2018-09-16T21:34:20.185Z,81.75
2018-09-16T21:36:49.454Z,81.59
2018-09-16T21:39:18.873Z,82.24
2018-09-16T21:41:48.184Z,82.12
2018-09-16T21:44:17.457Z,82.86
2018-09-16T21:46:46.758Z,82.99
2018-09-16T21:49:16.170Z,82.64
2018-09-16T21:51:45.492Z,83.35
2018-09-16T21:54:14.761Z,83.47
2018-09-16T21:56:44.029Z,83.45
2018-09-16T21:59:13.466Z,83.59
2018-09-16T22:01:42.707Z,83.38
2018-09-16T22:04:12.011Z,83.31
2018-09-16T22:06:41.626Z,83.82
2018-09-16T22:09:11.714Z,83.12
2018-09-16T22:11:40.992Z,84.65
2018-09-16T22:14:10.267Z,85.94
2018-09-16T22:16:39.555Z,85.45
2018-09-16T22:19:08.831Z,85.32
2018-09-16T22:21:38.114Z,86.35
2018-09-16T22:24:07.374Z,86.41
2018-09-16T22:26:36.655Z,86.94
2018-09-16T22:29:05.968Z,87.01
2018-09-16T22:31:35.233Z,87.15
2018-09-16T22:34:04.487Z,87.18
2018-09-16T22:36:33.756Z,87.36
2018-09-16T22:39:03.136Z,86.99
2018-09-16T22:41:32.419Z,86.81
2018-09-16T22:44:01.697Z,86.85
2018-09-16T22:46:30.986Z,87.04
2018-09-16T22:49:00.295Z,86.93
2018-09-16T22:51:29.566Z,87.09
2018-09-16T22:53:58.886Z,86.97
2018-09-16T22:56:28.190Z,87.66
2018-09-16T22:58:57.540Z,87.49
2018-09-16T23:01:26.815Z,87.94
2018-09-16T23:03:56.147Z,88.04
2018-09-16T23:06:25.450Z,88.43
2018-09-16T23:08:59.929Z,88.47
2018-09-16T23:11:29.209Z,88.60
2018-09-16T23:13:58.527Z,88.45
2018-09-16T23:16:27.925Z,88.67
2018-09-16T23:18:57.268Z,88.52
2018-09-16T23:21:26.621Z,88.96
2018-09-16T23:23:55.922Z,89.05
2018-09-16T23:26:25.370Z,88.68
2018-09-16T23:28:54.686Z,88.50
2018-09-16T23:31:23.988Z,89.52
2018-09-16T23:33:53.277Z,89.48
2018-09-16T23:36:22.550Z,89.21
2018-09-16T23:38:51.751Z,89.24
2018-09-16T23:41:21.009Z,89.51
2018-09-16T23:43:50.209Z,89.78
2018-09-16T23:46:19.430Z,90.61
2018-09-16T23:48:48.681Z,90.65
2018-09-16T23:51:17.898Z,90.59
2018-09-16T23:53:47.117Z,90.87
2018-09-16T23:56:16.334Z,91.68
2018-09-16T23:58:45.561Z,91.59
